sensor_id;sensor_type;location;lat;lon;timestamp;pressure;altitude;pressure_sealevel;temperature;humidity
73651;BME280;61944;52.538;6.108;2023-03-12T00:01:14;101109.34;;;1.95;100.00
73651;BME280;61944;52.538;6.108;2023-03-12T00:03:40;101121.66;;;1.89;100.00
73651;BME280;61944;52.538;6.108;2023-03-12T00:06:06;101118.59;;;1.91;100.00
73651;BME280;61944;52.538;6.108;2023-03-12T00:08:31;101112.25;;;1.90;100.00
73651;BME280;61944;52.538;6.108;2023-03-12T00:10:57;101115.81;;;1.91;100.00
73651;BME280;61944;52.538;6.108;2023-03-12T00:13:22;101108.78;;;1.85;100.00
73651;BME280;61944;52.538;6.108;2023-03-12T00:15:47;101107.19;;;1.83;100.00
73651;BME280;61944;52.538;6.108;2023-03-12T00:18:13;101100.50;;;1.85;100.00
73651;BME280;61944;52.538;6.108;2023-03-12T00:20:38;101113.50;;;1.84;100.00
73651;BME280;61944;52.538;6.108;2023-03-12T00:23:03;101108.59;;;1.81;100.00
73651;BME280;61944;52.538;6.108;2023-03-12T00:25:29;101100.66;;;1.79;100.00
73651;BME280;61944;52.538;6.108;2023-03-12T00:27:54;101098.50;;;1.76;100.00
73651;BME280;61944;52.538;6.108;2023-03-12T00:30:20;101097.81;;;1.71;100.00
73651;BME280;61944;52.538;6.108;2023-03-12T00:32:45;101097.69;;;1.76;100.00
73651;BME280;61944;52.538;6.108;2023-03-12T00:35:10;101092.63;;;1.69;100.00
73651;BME280;61944;52.538;6.108;2023-03-12T00:37:37;101092.91;;;1.68;100.00
73651;BME280;61944;52.538;6.108;2023-03-12T00:40:04;101087.09;;;1.69;100.00
73651;BME280;61944;52.538;6.108;2023-03-12T00:42:31;101090.34;;;1.71;100.00
73651;BME280;61944;52.538;6.108;2023-03-12T00:44:56;101082.69;;;1.68;100.00
73651;BME280;61944;52.538;6.108;2023-03-12T00:47:22;101077.56;;;1.75;100.00
73651;BME280;61944;52.538;6.108;2023-03-12T00:49:47;101081.75;;;1.73;100.00
73651;BME280;61944;52.538;6.108;2023-03-12T00:52:12;101075.81;;;1.79;100.00
73651;BME280;61944;52.538;6.108;2023-03-12T00:54:38;101071.41;;;1.78;100.00
73651;BME280;61944;52.538;6.108;2023-03-12T00:57:03;101080.19;;;1.80;100.00
73651;BME280;61944;52.538;6.108;2023-03-12T00:59:29;101076.13;;;1.78;100.00
73651;BME280;61944;52.538;6.108;2023-03-12T01:01:54;101078.88;;;1.78;100.00
73651;BME280;61944;52.538;6.108;2023-03-12T01:04:19;101066.69;;;1.79;100.00
73651;BME280;61944;52.538;6.108;2023-03-12T01:06:45;101072.06;;;1.75;100.00
73651;BME280;61944;52.538;6.108;2023-03-12T01:09:10;101062.88;;;1.66;100.00
73651;BME280;61944;52.538;6.108;2023-03-12T01:11:37;101065.56;;;1.57;100.00
73651;BME280;61944;52.538;6.108;2023-03-12T01:14:04;101061.28;;;1.51;100.00
73651;BME280;61944;52.538;6.108;2023-03-12T01:16:30;101052.84;;;1.48;100.00
73651;BME280;61944;52.538;6.108;2023-03-12T01:18:59;101063.88;;;1.70;100.00
73651;BME280;61944;52.538;6.108;2023-03-12T01:21:26;101066.28;;;1.63;100.00
73651;BME280;61944;52.538;6.108;2023-03-12T01:23:51;101063.19;;;1.42;100.00
73651;BME280;61944;52.538;6.108;2023-03-12T01:26:17;101058.50;;;1.65;100.00
73651;BME280;61944;52.538;6.108;2023-03-12T01:28:43;101053.34;;;1.72;100.00
73651;BME280;61944;52.538;6.108;2023-03-12T01:31:11;101051.16;;;1.60;100.00
73651;BME280;61944;52.538;6.108;2023-03-12T01:33:36;101046.44;;;1.61;100.00
73651;BME280;61944;52.538;6.108;2023-03-12T01:36:02;101039.94;;;1.57;100.00
73651;BME280;61944;52.538;6.108;2023-03-12T01:38:28;101043.56;;;1.44;100.00
73651;BME280;61944;52.538;6.108;2023-03-12T01:40:53;101043.81;;;1.56;100.00
73651;BME280;61944;52.538;6.108;2023-03-12T01:43:26;101047.19;;;1.53;100.00
73651;BME280;61944;52.538;6.108;2023-03-12T01:48:20;101044.75;;;1.51;100.00
73651;BME280;61944;52.538;6.108;2023-03-12T01:50:45;101039.88;;;1.48;100.00
73651;BME280;61944;52.538;6.108;2023-03-12T01:53:11;101039.28;;;1.60;100.00
73651;BME280;61944;52.538;6.108;2023-03-12T01:55:37;101032.25;;;1.31;100.00
73651;BME280;61944;52.538;6.108;2023-03-12T01:58:03;101023.81;;;1.14;100.00
73651;BME280;61944;52.538;6.108;2023-03-12T02:00:30;101016.91;;;1.39;100.00
73651;BME280;61944;52.538;6.108;2023-03-12T02:03:00;101012.97;;;1.31;100.00
73651;BME280;61944;52.538;6.108;2023-03-12T02:05:33;101009.81;;;1.47;100.00
73651;BME280;61944;52.538;6.108;2023-03-12T02:08:00;101006.19;;;1.37;100.00
73651;BME280;61944;52.538;6.108;2023-03-12T02:10:26;101006.81;;;1.34;100.00
73651;BME280;61944;52.538;6.108;2023-03-12T02:12:51;101002.00;;;1.40;100.00
73651;BME280;61944;52.538;6.108;2023-03-12T02:15:17;101004.28;;;1.24;100.00
73651;BME280;61944;52.538;6.108;2023-03-12T02:17:43;101000.03;;;1.40;100.00
73651;BME280;61944;52.538;6.108;2023-03-12T02:22:56;100995.97;;;1.38;100.00
73651;BME280;61944;52.538;6.108;2023-03-12T02:25:36;100992.41;;;1.37;100.00
73651;BME280;61944;52.538;6.108;2023-03-12T02:28:06;100990.19;;;1.26;100.00
73651;BME280;61944;52.538;6.108;2023-03-12T02:30:33;100987.25;;;1.22;100.00
73651;BME280;61944;52.538;6.108;2023-03-12T02:33:01;100988.13;;;1.54;100.00
73651;BME280;61944;52.538;6.108;2023-03-12T02:35:27;100972.91;;;1.34;100.00
73651;BME280;61944;52.538;6.108;2023-03-12T02:37:54;100968.06;;;1.17;100.00
73651;BME280;61944;52.538;6.108;2023-03-12T02:40:28;100960.06;;;1.29;100.00
73651;BME280;61944;52.538;6.108;2023-03-12T02:42:56;100956.91;;;0.99;100.00
73651;BME280;61944;52.538;6.108;2023-03-12T02:45:22;100956.06;;;0.99;100.00
73651;BME280;61944;52.538;6.108;2023-03-12T02:47:48;100956.78;;;1.05;100.00
73651;BME280;61944;52.538;6.108;2023-03-12T02:50:14;100954.66;;;1.01;100.00
73651;BME280;61944;52.538;6.108;2023-03-12T02:52:39;100946.97;;;1.12;100.00
73651;BME280;61944;52.538;6.108;2023-03-12T02:55:05;100941.38;;;1.04;100.00
73651;BME280;61944;52.538;6.108;2023-03-12T02:57:31;100934.53;;;1.01;100.00
73651;BME280;61944;52.538;6.108;2023-03-12T02:59:56;100939.22;;;1.00;100.00
73651;BME280;61944;52.538;6.108;2023-03-12T03:02:22;100931.53;;;1.11;100.00
73651;BME280;61944;52.538;6.108;2023-03-12T03:04:48;100931.22;;;1.13;100.00
73651;BME280;61944;52.538;6.108;2023-03-12T03:07:17;100930.97;;;1.23;100.00
73651;BME280;61944;52.538;6.108;2023-03-12T03:09:42;100938.84;;;1.38;100.00
73651;BME280;61944;52.538;6.108;2023-03-12T03:12:07;100938.00;;;1.29;100.00
73651;BME280;61944;52.538;6.108;2023-03-12T03:14:33;100938.34;;;1.36;100.00
73651;BME280;61944;52.538;6.108;2023-03-12T03:16:58;100931.72;;;1.37;100.00
73651;BME280;61944;52.538;6.108;2023-03-12T03:19:24;100934.03;;;1.44;100.00
73651;BME280;61944;52.538;6.108;2023-03-12T03:21:49;100926.47;;;1.27;100.00
73651;BME280;61944;52.538;6.108;2023-03-12T03:24:14;100926.47;;;1.27;100.00
73651;BME280;61944;52.538;6.108;2023-03-12T03:26:41;100917.44;;;1.35;100.00
73651;BME280;61944;52.538;6.108;2023-03-12T03:29:06;100906.97;;;1.24;100.00
73651;BME280;61944;52.538;6.108;2023-03-12T03:31:32;100904.91;;;1.29;100.00
73651;BME280;61944;52.538;6.108;2023-03-12T03:33:57;100910.91;;;1.09;100.00
73651;BME280;61944;52.538;6.108;2023-03-12T03:36:23;100910.72;;;1.05;100.00
73651;BME280;61944;52.538;6.108;2023-03-12T03:38:48;100900.69;;;1.09;100.00
73651;BME280;61944;52.538;6.108;2023-03-12T03:41:19;100899.91;;;1.09;100.00
73651;BME280;61944;52.538;6.108;2023-03-12T03:43:45;100888.06;;;1.31;100.00
73651;BME280;61944;52.538;6.108;2023-03-12T03:46:11;100881.66;;;1.21;100.00
73651;BME280;61944;52.538;6.108;2023-03-12T03:48:37;100888.63;;;1.19;100.00
73651;BME280;61944;52.538;6.108;2023-03-12T03:51:05;100873.97;;;1.10;100.00
73651;BME280;61944;52.538;6.108;2023-03-12T03:53:31;100878.69;;;1.18;100.00
73651;BME280;61944;52.538;6.108;2023-03-12T03:55:57;100870.53;;;1.04;100.00
73651;BME280;61944;52.538;6.108;2023-03-12T03:58:22;100864.66;;;1.28;100.00
73651;BME280;61944;52.538;6.108;2023-03-12T04:00:48;100852.88;;;1.14;100.00
73651;BME280;61944;52.538;6.108;2023-03-12T04:03:13;100857.44;;;1.10;100.00
73651;BME280;61944;52.538;6.108;2023-03-12T04:05:39;100851.06;;;1.09;100.00
73651;BME280;61944;52.538;6.108;2023-03-12T04:08:09;100859.28;;;1.00;100.00
73651;BME280;61944;52.538;6.108;2023-03-12T04:10:36;100856.59;;;1.09;100.00
73651;BME280;61944;52.538;6.108;2023-03-12T04:13:01;100854.34;;;1.11;100.00
73651;BME280;61944;52.538;6.108;2023-03-12T04:15:26;100853.09;;;1.17;100.00
73651;BME280;61944;52.538;6.108;2023-03-12T04:17:52;100851.63;;;1.20;100.00
73651;BME280;61944;52.538;6.108;2023-03-12T04:20:17;100850.53;;;0.98;100.00
73651;BME280;61944;52.538;6.108;2023-03-12T04:22:42;100851.91;;;1.10;100.00
73651;BME280;61944;52.538;6.108;2023-03-12T04:25:08;100847.00;;;1.07;100.00
73651;BME280;61944;52.538;6.108;2023-03-12T04:27:34;100839.59;;;1.16;100.00
73651;BME280;61944;52.538;6.108;2023-03-12T04:29:59;100830.84;;;1.14;100.00
73651;BME280;61944;52.538;6.108;2023-03-12T04:32:25;100829.41;;;1.16;100.00
73651;BME280;61944;52.538;6.108;2023-03-12T04:34:50;100812.59;;;0.95;100.00
73651;BME280;61944;52.538;6.108;2023-03-12T04:37:16;100807.16;;;1.13;100.00
73651;BME280;61944;52.538;6.108;2023-03-12T04:39:42;100800.03;;;1.12;100.00
73651;BME280;61944;52.538;6.108;2023-03-12T04:42:08;100804.16;;;1.00;100.00
73651;BME280;61944;52.538;6.108;2023-03-12T04:44:34;100801.16;;;1.11;100.00
73651;BME280;61944;52.538;6.108;2023-03-12T04:47:00;100800.84;;;1.12;100.00
73651;BME280;61944;52.538;6.108;2023-03-12T04:49:25;100816.69;;;1.07;100.00
73651;BME280;61944;52.538;6.108;2023-03-12T04:51:51;100806.00;;;1.14;100.00
73651;BME280;61944;52.538;6.108;2023-03-12T04:54:16;100789.66;;;1.17;100.00
73651;BME280;61944;52.538;6.108;2023-03-12T04:56:42;100783.84;;;1.19;100.00
73651;BME280;61944;52.538;6.108;2023-03-12T04:59:07;100783.50;;;1.12;100.00
73651;BME280;61944;52.538;6.108;2023-03-12T05:01:35;100788.00;;;1.08;100.00
73651;BME280;61944;52.538;6.108;2023-03-12T05:04:01;100802.41;;;1.05;100.00
73651;BME280;61944;52.538;6.108;2023-03-12T05:06:27;100800.50;;;1.14;100.00
73651;BME280;61944;52.538;6.108;2023-03-12T05:08:52;100798.75;;;1.18;100.00
73651;BME280;61944;52.538;6.108;2023-03-12T05:11:19;100794.69;;;1.15;100.00
73651;BME280;61944;52.538;6.108;2023-03-12T05:13:44;100795.22;;;1.26;100.00
73651;BME280;61944;52.538;6.108;2023-03-12T05:16:10;100787.81;;;1.35;100.00
73651;BME280;61944;52.538;6.108;2023-03-12T05:18:36;100784.47;;;1.16;100.00
73651;BME280;61944;52.538;6.108;2023-03-12T05:21:07;100775.31;;;1.29;100.00
73651;BME280;61944;52.538;6.108;2023-03-12T05:23:34;100767.84;;;1.30;100.00
73651;BME280;61944;52.538;6.108;2023-03-12T05:26:00;100767.84;;;1.30;100.00
73651;BME280;61944;52.538;6.108;2023-03-12T05:28:27;100765.66;;;1.18;100.00
73651;BME280;61944;52.538;6.108;2023-03-12T05:30:55;100773.31;;;1.21;100.00
73651;BME280;61944;52.538;6.108;2023-03-12T05:33:20;100774.16;;;1.30;100.00
73651;BME280;61944;52.538;6.108;2023-03-12T05:35:46;100769.56;;;1.17;100.00
73651;BME280;61944;52.538;6.108;2023-03-12T05:38:11;100756.63;;;1.26;100.00
73651;BME280;61944;52.538;6.108;2023-03-12T05:40:36;100757.88;;;1.20;100.00
73651;BME280;61944;52.538;6.108;2023-03-12T05:43:02;100762.41;;;1.16;100.00
73651;BME280;61944;52.538;6.108;2023-03-12T05:45:28;100752.25;;;1.25;100.00
73651;BME280;61944;52.538;6.108;2023-03-12T05:47:53;100752.28;;;1.34;100.00
73651;BME280;61944;52.538;6.108;2023-03-12T05:50:18;100740.94;;;1.35;100.00
73651;BME280;61944;52.538;6.108;2023-03-12T05:52:44;100744.94;;;1.20;100.00
73651;BME280;61944;52.538;6.108;2023-03-12T05:55:09;100742.97;;;1.21;100.00
73651;BME280;61944;52.538;6.108;2023-03-12T05:57:35;100740.41;;;1.25;100.00
73651;BME280;61944;52.538;6.108;2023-03-12T06:00:00;100738.47;;;1.25;100.00
73651;BME280;61944;52.538;6.108;2023-03-12T06:02:26;100738.31;;;1.30;100.00
73651;BME280;61944;52.538;6.108;2023-03-12T06:04:51;100749.81;;;1.32;100.00
73651;BME280;61944;52.538;6.108;2023-03-12T06:07:16;100744.50;;;1.36;100.00
73651;BME280;61944;52.538;6.108;2023-03-12T06:09:42;100732.81;;;1.39;100.00
73651;BME280;61944;52.538;6.108;2023-03-12T06:12:07;100728.13;;;1.31;100.00
73651;BME280;61944;52.538;6.108;2023-03-12T06:14:33;100741.25;;;1.34;100.00
73651;BME280;61944;52.538;6.108;2023-03-12T06:16:58;100727.47;;;1.42;100.00
73651;BME280;61944;52.538;6.108;2023-03-12T06:19:23;100736.44;;;1.48;100.00
73651;BME280;61944;52.538;6.108;2023-03-12T06:21:49;100733.97;;;1.47;100.00
73651;BME280;61944;52.538;6.108;2023-03-12T06:24:14;100732.38;;;1.46;100.00
73651;BME280;61944;52.538;6.108;2023-03-12T06:26:40;100728.16;;;1.48;100.00
73651;BME280;61944;52.538;6.108;2023-03-12T06:29:05;100731.22;;;1.47;100.00
73651;BME280;61944;52.538;6.108;2023-03-12T06:31:31;100714.69;;;1.47;100.00
73651;BME280;61944;52.538;6.108;2023-03-12T06:33:56;100712.44;;;1.57;100.00
73651;BME280;61944;52.538;6.108;2023-03-12T06:36:21;100708.06;;;1.65;100.00
73651;BME280;61944;52.538;6.108;2023-03-12T06:38:48;100711.31;;;1.67;100.00
73651;BME280;61944;52.538;6.108;2023-03-12T06:41:17;100712.94;;;1.68;100.00
73651;BME280;61944;52.538;6.108;2023-03-12T06:43:44;100698.81;;;1.61;100.00
73651;BME280;61944;52.538;6.108;2023-03-12T06:46:12;100700.28;;;1.67;100.00
73651;BME280;61944;52.538;6.108;2023-03-12T06:48:37;100698.66;;;1.66;100.00
73651;BME280;61944;52.538;6.108;2023-03-12T06:51:06;100698.81;;;1.61;100.00
73651;BME280;61944;52.538;6.108;2023-03-12T06:53:33;100705.94;;;1.62;100.00
73651;BME280;61944;52.538;6.108;2023-03-12T06:55:58;100704.34;;;1.70;100.00
73651;BME280;61944;52.538;6.108;2023-03-12T06:58:24;100720.91;;;1.70;100.00
73651;BME280;61944;52.538;6.108;2023-03-12T07:00:49;100715.84;;;1.63;100.00
73651;BME280;61944;52.538;6.108;2023-03-12T07:03:15;100711.31;;;1.67;100.00
73651;BME280;61944;52.538;6.108;2023-03-12T07:05:45;100706.78;;;1.71;100.00
73651;BME280;61944;52.538;6.108;2023-03-12T07:08:11;100702.25;;;1.67;100.00
73651;BME280;61944;52.538;6.108;2023-03-12T07:10:36;100688.59;;;1.70;100.00
73651;BME280;61944;52.538;6.108;2023-03-12T07:13:02;100686.31;;;1.72;100.00
73651;BME280;61944;52.538;6.108;2023-03-12T07:15:27;100681.78;;;1.76;100.00
73651;BME280;61944;52.538;6.108;2023-03-12T07:17:53;100682.59;;;1.77;100.00
73651;BME280;61944;52.538;6.108;2023-03-12T07:20:18;100666.03;;;1.77;100.00
73651;BME280;61944;52.538;6.108;2023-03-12T07:22:44;100673.34;;;1.73;100.00
73651;BME280;61944;52.538;6.108;2023-03-12T07:25:10;100661.66;;;1.67;100.00
73651;BME280;61944;52.538;6.108;2023-03-12T07:27:35;100661.16;;;1.65;100.00
73651;BME280;61944;52.538;6.108;2023-03-12T07:30:01;100662.78;;;1.75;100.00
73651;BME280;61944;52.538;6.108;2023-03-12T07:32:26;100652.41;;;1.80;100.00
73651;BME280;61944;52.538;6.108;2023-03-12T07:34:52;100647.19;;;1.79;100.00
73651;BME280;61944;52.538;6.108;2023-03-12T07:37:17;100633.59;;;1.74;100.00
73651;BME280;61944;52.538;6.108;2023-03-12T07:39:42;100634.72;;;1.81;100.00
73651;BME280;61944;52.538;6.108;2023-03-12T07:42:09;100630.19;;;1.86;100.00
73651;BME280;61944;52.538;6.108;2023-03-12T07:44:36;100628.38;;;1.81;100.00
73651;BME280;61944;52.538;6.108;2023-03-12T07:47:02;100626.94;;;1.83;100.00
73651;BME280;61944;52.538;6.108;2023-03-12T07:49:27;100622.34;;;1.88;100.00
73651;BME280;61944;52.538;6.108;2023-03-12T07:51:53;100635.72;;;1.86;100.00
73651;BME280;61944;52.538;6.108;2023-03-12T07:54:19;100619.94;;;1.86;100.00
73651;BME280;61944;52.538;6.108;2023-03-12T07:56:44;100618.78;;;1.96;100.00
73651;BME280;61944;52.538;6.108;2023-03-12T07:59:09;100619.75;;;2.00;100.00
73651;BME280;61944;52.538;6.108;2023-03-12T08:01:35;100621.88;;;2.03;100.00
73651;BME280;61944;52.538;6.108;2023-03-12T08:04:01;100632.44;;;2.01;100.00
73651;BME280;61944;52.538;6.108;2023-03-12T08:06:27;100630.97;;;1.95;100.00
73651;BME280;61944;52.538;6.108;2023-03-12T08:08:52;100642.69;;;2.00;100.00
73651;BME280;61944;52.538;6.108;2023-03-12T08:11:18;100646.72;;;2.03;100.00
73651;BME280;61944;52.538;6.108;2023-03-12T08:13:43;100643.31;;;2.06;100.00
73651;BME280;61944;52.538;6.108;2023-03-12T08:16:12;100643.16;;;2.02;100.00
73651;BME280;61944;52.538;6.108;2023-03-12T08:18:38;100646.72;;;2.03;100.00
73651;BME280;61944;52.538;6.108;2023-03-12T08:21:04;100653.72;;;2.00;100.00
73651;BME280;61944;52.538;6.108;2023-03-12T08:23:29;100655.81;;;1.95;100.00
73651;BME280;61944;52.538;6.108;2023-03-12T08:25:55;100657.78;;;2.03;100.00
73651;BME280;61944;52.538;6.108;2023-03-12T08:28:22;100647.22;;;1.96;100.00
73651;BME280;61944;52.538;6.108;2023-03-12T08:30:50;100632.44;;;2.01;100.00
73651;BME280;61944;52.538;6.108;2023-03-12T08:33:16;100638.28;;;2.08;100.00
73651;BME280;61944;52.538;6.108;2023-03-12T08:35:42;100630.81;;;2.00;100.00
73651;BME280;61944;52.538;6.108;2023-03-12T08:38:07;100621.22;;;1.97;100.00
73651;BME280;61944;52.538;6.108;2023-03-12T08:40:33;100623.97;;;2.06;100.00
73651;BME280;61944;52.538;6.108;2023-03-12T08:42:58;100623.97;;;2.06;100.00
73651;BME280;61944;52.538;6.108;2023-03-12T08:45:24;100609.06;;;2.07;100.00
73651;BME280;61944;52.538;6.108;2023-03-12T08:47:49;100596.56;;;2.01;100.00
73651;BME280;61944;52.538;6.108;2023-03-12T08:50:15;100600.59;;;2.03;100.00
73651;BME280;61944;52.538;6.108;2023-03-12T08:52:42;100612.44;;;2.04;100.00
73651;BME280;61944;52.538;6.108;2023-03-12T08:55:08;100612.28;;;2.09;100.00
73651;BME280;61944;52.538;6.108;2023-03-12T08:57:33;100617.81;;;2.09;100.00
73651;BME280;61944;52.538;6.108;2023-03-12T08:59:59;100615.22;;;2.04;100.00
73651;BME280;61944;52.538;6.108;2023-03-12T09:02:24;100604.00;;;2.09;100.00
73651;BME280;61944;52.538;6.108;2023-03-12T09:04:50;100602.84;;;2.10;100.00
73651;BME280;61944;52.538;6.108;2023-03-12T09:07:15;100600.59;;;2.12;100.00
73651;BME280;61944;52.538;6.108;2023-03-12T09:09:46;100606.91;;;2.13;100.00
73651;BME280;61944;52.538;6.108;2023-03-12T09:12:11;100598.31;;;2.14;100.00
73651;BME280;61944;52.538;6.108;2023-03-12T09:14:36;100589.88;;;2.19;100.00
73651;BME280;61944;52.538;6.108;2023-03-12T09:17:02;100591.00;;;2.18;100.00
73651;BME280;61944;52.538;6.108;2023-03-12T09:19:28;100593.75;;;2.18;100.00
73651;BME280;61944;52.538;6.108;2023-03-12T09:21:53;100585.28;;;2.32;100.00
73651;BME280;61944;52.538;6.108;2023-03-12T09:24:19;100594.38;;;2.33;100.00
73651;BME280;61944;52.538;6.108;2023-03-12T09:26:44;100595.34;;;2.37;100.00
73651;BME280;61944;52.538;6.108;2023-03-12T09:29:10;100599.22;;;2.36;100.00
73651;BME280;61944;52.538;6.108;2023-03-12T09:31:35;100611.25;;;2.40;100.00
73651;BME280;61944;52.538;6.108;2023-03-12T09:34:02;100618.41;;;2.41;100.00
73651;BME280;61944;52.538;6.108;2023-03-12T09:36:27;100601.16;;;2.44;100.00
73651;BME280;61944;52.538;6.108;2023-03-12T09:38:53;100607.84;;;2.43;100.00
73651;BME280;61944;52.538;6.108;2023-03-12T09:41:25;100610.88;;;2.50;100.00
73651;BME280;61944;52.538;6.108;2023-03-12T09:44:02;100613.66;;;2.50;100.00
73651;BME280;61944;52.538;6.108;2023-03-12T09:46:59;100594.16;;;2.55;100.00
73651;BME280;61944;52.538;6.108;2023-03-12T09:49:39;100582.91;;;2.60;100.00
73651;BME280;61944;52.538;6.108;2023-03-12T09:52:30;100586.16;;;2.62;100.00
73651;BME280;61944;52.538;6.108;2023-03-12T09:55:13;100606.78;;;2.65;100.00
73651;BME280;61944;52.538;6.108;2023-03-12T09:57:40;100595.88;;;2.69;100.00
73651;BME280;61944;52.538;6.108;2023-03-12T10:00:11;100591.47;;;2.76;100.00
73651;BME280;61944;52.538;6.108;2023-03-12T10:11:04;100584.09;;;2.89;100.00
73651;BME280;61944;52.538;6.108;2023-03-12T10:13:42;100595.41;;;2.96;100.00
73651;BME280;61944;52.538;6.108;2023-03-12T10:16:24;100593.94;;;2.99;100.00
73651;BME280;61944;52.538;6.108;2023-03-12T10:22:06;100584.59;;;3.12;100.00
73651;BME280;61944;52.538;6.108;2023-03-12T10:27:21;100577.94;;;3.34;100.00
73651;BME280;61944;52.538;6.108;2023-03-12T10:29:50;100569.97;;;3.33;100.00
73651;BME280;61944;52.538;6.108;2023-03-12T10:32:29;100578.91;;;3.38;100.00
73651;BME280;61944;52.538;6.108;2023-03-12T10:35:12;100571.13;;;3.53;100.00
73651;BME280;61944;52.538;6.108;2023-03-12T10:37:43;100566.66;;;3.39;100.00
73651;BME280;61944;52.538;6.108;2023-03-12T10:40:25;100555.78;;;3.76;100.00
73651;BME280;61944;52.538;6.108;2023-03-12T10:42:51;100552.47;;;3.83;100.00
73651;BME280;61944;52.538;6.108;2023-03-12T10:45:26;100566.16;;;3.79;100.00
73651;BME280;61944;52.538;6.108;2023-03-12T10:48:05;100562.09;;;3.98;100.00
73651;BME280;61944;52.538;6.108;2023-03-12T10:50:35;100549.66;;;4.04;100.00
73651;BME280;61944;52.538;6.108;2023-03-12T10:53:13;100566.78;;;4.18;100.00
73651;BME280;61944;52.538;6.108;2023-03-12T10:55:42;100554.34;;;4.24;100.00
73651;BME280;61944;52.538;6.108;2023-03-12T10:58:21;100556.44;;;4.40;100.00
73651;BME280;61944;52.538;6.108;2023-03-12T11:00:59;100551.81;;;4.44;100.00
73651;BME280;61944;52.538;6.108;2023-03-12T11:03:25;100557.38;;;4.44;100.00
73651;BME280;61944;52.538;6.108;2023-03-12T11:05:53;100557.03;;;4.45;100.00
73651;BME280;61944;52.538;6.108;2023-03-12T11:08:30;100562.03;;;4.77;100.00
73651;BME280;61944;52.538;6.108;2023-03-12T11:10:58;100554.63;;;4.81;100.00
73651;BME280;61944;52.538;6.108;2023-03-12T11:15:49;100554.38;;;4.98;100.00
73651;BME280;61944;52.538;6.108;2023-03-12T11:23:36;100567.53;;;5.14;100.00
73651;BME280;61944;52.538;6.108;2023-03-12T11:26:04;100557.38;;;5.18;100.00
73651;BME280;61944;52.538;6.108;2023-03-12T11:28:51;100551.69;;;5.14;100.00
73651;BME280;61944;52.538;6.108;2023-03-12T11:31:28;100545.75;;;5.40;100.00
73651;BME280;61944;52.538;6.108;2023-03-12T11:34:04;100541.78;;;5.54;100.00
73651;BME280;61944;52.538;6.108;2023-03-12T11:39:32;100548.66;;;5.72;100.00
73651;BME280;61944;52.538;6.108;2023-03-12T11:47:49;100557.91;;;5.76;100.00
73651;BME280;61944;52.538;6.108;2023-03-12T11:50:27;100562.06;;;5.82;100.00
73651;BME280;61944;52.538;6.108;2023-03-12T11:53:03;100550.34;;;5.61;100.00
73651;BME280;61944;52.538;6.108;2023-03-12T12:12:00;100547.03;;;6.59;100.00
73651;BME280;61944;52.538;6.108;2023-03-12T12:17:09;100540.03;;;6.34;100.00
73651;BME280;61944;52.538;6.108;2023-03-12T12:24:57;100530.81;;;6.45;100.00
73651;BME280;61944;52.538;6.108;2023-03-12T12:27:32;100524.88;;;6.47;100.00
73651;BME280;61944;52.538;6.108;2023-03-12T12:35:36;100514.84;;;6.58;100.00
73651;BME280;61944;52.538;6.108;2023-03-12T12:41:16;100504.84;;;6.89;100.00
73651;BME280;61944;52.538;6.108;2023-03-12T12:43:46;100510.59;;;6.96;100.00
73651;BME280;61944;52.538;6.108;2023-03-12T12:46:18;100509.84;;;6.99;100.00
73651;BME280;61944;52.538;6.108;2023-03-12T12:48:58;100501.84;;;6.98;100.00
73651;BME280;61944;52.538;6.108;2023-03-12T12:51:32;100486.13;;;7.05;100.00
73651;BME280;61944;52.538;6.108;2023-03-12T12:57:20;100476.78;;;7.13;100.00
73651;BME280;61944;52.538;6.108;2023-03-12T13:02:24;100483.38;;;7.25;100.00
73651;BME280;61944;52.538;6.108;2023-03-12T13:04:57;100495.78;;;7.47;100.00
73651;BME280;61944;52.538;6.108;2023-03-12T13:09:50;100494.97;;;7.46;100.00
73651;BME280;61944;52.538;6.108;2023-03-12T13:12:46;100495.84;;;7.50;100.00
73651;BME280;61944;52.538;6.108;2023-03-12T13:20:23;100499.34;;;7.67;100.00
73651;BME280;61944;52.538;6.108;2023-03-12T13:26:02;100496.56;;;7.67;100.00
73651;BME280;61944;52.538;6.108;2023-03-12T13:33:52;100481.25;;;7.77;100.00
73651;BME280;61944;52.538;6.108;2023-03-12T13:36:20;100493.47;;;7.91;100.00
73651;BME280;61944;52.538;6.108;2023-03-12T13:38:55;100484.69;;;7.89;100.00
73651;BME280;61944;52.538;6.108;2023-03-12T13:41:30;100493.91;;;7.93;100.00
73651;BME280;61944;52.538;6.108;2023-03-12T13:43:56;100491.63;;;7.99;100.00
73651;BME280;61944;52.538;6.108;2023-03-12T13:46:38;100489.47;;;8.12;100.00
73651;BME280;61944;52.538;6.108;2023-03-12T13:49:09;100493.56;;;8.18;100.00
73651;BME280;61944;52.538;6.108;2023-03-12T13:51:43;100495.78;;;8.09;100.00
73651;BME280;61944;52.538;6.108;2023-03-12T13:54:17;100501.06;;;8.14;100.00
73651;BME280;61944;52.538;6.108;2023-03-12T13:57:22;100511.03;;;8.15;100.00
73651;BME280;61944;52.538;6.108;2023-03-12T13:59:44;100498.44;;;8.02;100.00
73651;BME280;61944;52.538;6.108;2023-03-12T14:02:24;100504.91;;;8.06;100.00
73651;BME280;61944;52.538;6.108;2023-03-12T14:04:51;100503.34;;;8.08;100.00
73651;BME280;61944;52.538;6.108;2023-03-12T14:12:29;100520.31;;;8.00;100.00
73651;BME280;61944;52.538;6.108;2023-03-12T14:17:27;100516.75;;;8.03;100.00
73651;BME280;61944;52.538;6.108;2023-03-12T14:20:16;100521.63;;;8.06;100.00
73651;BME280;61944;52.538;6.108;2023-03-12T14:22:44;100525.88;;;8.00;100.00
73651;BME280;61944;52.538;6.108;2023-03-12T14:25:25;100530.22;;;7.97;100.00
73651;BME280;61944;52.538;6.108;2023-03-12T14:27:53;100530.56;;;7.96;100.00
73651;BME280;61944;52.538;6.108;2023-03-12T14:30:24;100543.03;;;8.02;100.00
73651;BME280;61944;52.538;6.108;2023-03-12T14:32:55;100537.03;;;8.00;100.00